Time;durP1;ratioP1;P1;durP2;ratioP2;P2;SDS_P1;SDS_P2;PMS_P1;PMS_P2;Temp;Humidity;BMP_temperature;BMP_pressure;BME280_temperature;BME280_humidity;BME280_pressure;Samples;Min_cycle;Max_cycle;Signal;HPM_P1;HPM_P2
2022/10/27 00:02:01;;;;;;;2.93;2.63;;;16.60;99.90;;;;;;4993577;28;20458;-82
2022/10/27 00:04:56;;;;;;;5.93;2.57;;;16.50;99.90;;;;;;4981326;28;20517;-83
2022/10/27 00:07:30;;;;;;;2.80;2.40;;;16.50;99.90;;;;;;4998182;28;20533;-83
2022/10/27 00:10:21;;;;;;;2.97;2.67;;;16.40;99.90;;;;;;4983745;28;20474;-83
2022/10/27 00:12:58;;;;;;;3.50;2.07;;;16.50;99.90;;;;;;4982890;28;20458;-82
2022/10/27 00:15:42;;;;;;;5.67;3.97;;;16.50;99.90;;;;;;4982214;28;20501;-85
2022/10/27 00:18:13;;;;;;;5.43;3.03;;;16.50;99.90;;;;;;5014819;28;20439;-86
2022/10/27 00:21:08;;;;;;;4.80;3.60;;;16.40;99.90;;;;;;4994290;28;20566;-82
2022/10/27 00:23:55;;;;;;;3.83;2.70;;;16.40;99.90;;;;;;4981040;28;21302;-83
2022/10/27 00:27:01;;;;;;;7.97;2.27;;;16.40;99.90;;;;;;4984544;28;20521;-83
2022/10/27 00:29:44;;;;;;;3.57;2.50;;;16.40;99.90;;;;;;4969756;28;20474;-83
2022/10/27 00:32:18;;;;;;;3.20;2.70;;;16.30;99.90;;;;;;4985854;28;20462;-84
2022/10/27 00:35:07;;;;;;;4.73;3.13;;;16.30;99.90;;;;;;4983525;28;20490;-83
2022/10/27 00:37:48;;;;;;;2.43;2.20;;;16.30;99.90;;;;;;4982314;28;20460;-84
2022/10/27 00:40:55;;;;;;;5.53;2.53;;;16.30;99.90;;;;;;4977486;28;20478;-85
2022/10/27 00:43:47;;;;;;;2.60;2.40;;;16.40;99.90;;;;;;4993927;28;20467;-86
2022/10/27 00:46:53;;;;;;;2.97;2.40;;;16.30;99.90;;;;;;5005035;28;20478;-86
2022/10/27 00:49:45;;;;;;;3.93;2.40;;;16.30;99.90;;;;;;5013588;28;20526;-86
2022/10/27 00:52:49;;;;;;;2.40;2.20;;;16.20;99.90;;;;;;5005317;28;20441;-87
2022/10/27 00:55:50;;;;;;;4.00;2.60;;;16.20;99.90;;;;;;4987313;28;20478;-85
2022/10/27 00:58:48;;;;;;;5.20;2.87;;;16.30;99.90;;;;;;4982914;28;20435;-83
2022/10/27 01:05:37;;;;;;;5.37;2.70;;;16.30;99.90;;;;;;5016031;28;20453;-82
2022/10/27 01:08:27;;;;;;;2.80;2.10;;;16.40;99.90;;;;;;5015312;28;20439;-84
2022/10/27 01:14:39;;;;;;;3.03;2.50;;;16.30;99.90;;;;;;5010485;28;20449;-84
2022/10/27 01:17:53;;;;;;;3.93;2.37;;;16.30;99.90;;;;;;4995969;28;20936;-85
2022/10/27 01:20:48;;;;;;;3.63;2.07;;;16.20;99.90;;;;;;4983209;28;20472;-85
2022/10/27 01:24:34;;;;;;;3.80;2.27;;;16.20;99.90;;;;;;4992877;28;20478;-86
2022/10/27 01:27:34;;;;;;;4.00;2.10;;;16.10;99.90;;;;;;4942166;28;20464;-84
2022/10/27 01:31:02;;;;;;;2.93;2.00;;;16.10;99.90;;;;;;5000131;28;20486;-84
2022/10/27 01:34:42;;;;;;;4.13;2.50;;;16.20;99.90;;;;;;4983590;28;20466;-86
2022/10/27 01:40:47;;;;;;;1.73;1.63;;;16.10;99.90;;;;;;4993126;28;20490;-84
2022/10/27 01:43:28;;;;;;;5.20;2.50;;;16.20;99.90;;;;;;4972563;28;20505;-85
2022/10/27 01:46:18;;;;;;;3.77;2.40;;;16.10;99.90;;;;;;4982789;28;20886;-83
2022/10/27 01:48:58;;;;;;;3.47;2.47;;;16.00;99.90;;;;;;4989072;28;20568;-85
2022/10/27 01:52:06;;;;;;;3.10;2.30;;;15.90;99.90;;;;;;4972352;28;20551;-84
2022/10/27 01:54:54;;;;;;;4.53;2.23;;;15.70;99.90;;;;;;4967279;28;20476;-83
2022/10/27 01:57:47;;;;;;;5.23;2.57;;;15.80;99.90;;;;;;4971298;28;20453;-83
2022/10/27 02:00:49;;;;;;;3.60;3.27;;;15.90;99.90;;;;;;4980336;28;20485;-83
2022/10/27 02:03:26;;;;;;;2.97;2.17;;;15.90;99.90;;;;;;4976092;28;20470;-84
2022/10/27 02:06:14;;;;;;;2.90;2.33;;;15.80;99.90;;;;;;4980630;28;20458;-82
2022/10/27 02:09:19;;;;;;;5.43;2.10;;;15.90;99.90;;;;;;4979888;28;21318;-83
2022/10/27 02:11:51;;;;;;;3.43;2.17;;;15.80;99.90;;;;;;4996864;28;20466;-83
2022/10/27 02:14:37;;;;;;;4.60;2.90;;;15.70;99.90;;;;;;4981198;28;20544;-82
2022/10/27 02:17:19;;;;;;;2.93;1.83;;;15.50;99.90;;;;;;4973793;28;20455;-84
2022/10/27 02:20:00;;;;;;;2.50;2.27;;;15.50;99.90;;;;;;4978773;28;20478;-84
2022/10/27 02:22:35;;;;;;;4.10;2.70;;;15.60;99.90;;;;;;4977033;28;21004;-84
2022/10/27 02:25:09;;;;;;;6.83;3.33;;;15.40;99.90;;;;;;4970112;28;20466;-83
2022/10/27 02:27:52;;;;;;;4.50;2.53;;;15.50;99.90;;;;;;4979047;28;20517;-84
2022/10/27 02:30:33;;;;;;;2.60;2.40;;;15.50;99.90;;;;;;4999748;28;20478;-84
2022/10/27 02:33:12;;;;;;;2.80;1.87;;;15.50;99.90;;;;;;4977747;28;20471;-84
2022/10/27 02:35:48;;;;;;;6.17;2.40;;;15.50;99.90;;;;;;4998388;28;20474;-85
2022/10/27 02:38:18;;;;;;;2.70;2.37;;;15.60;99.90;;;;;;4983336;28;20527;-84
2022/10/27 02:40:56;;;;;;;3.13;2.13;;;15.60;99.90;;;;;;4984853;28;20462;-85
2022/10/27 02:43:44;;;;;;;5.07;2.40;;;15.70;99.90;;;;;;4994831;28;20470;-84
2022/10/27 02:46:20;;;;;;;5.00;2.40;;;15.70;99.90;;;;;;5000773;28;20497;-85
2022/10/27 02:48:55;;;;;;;9.03;2.90;;;15.60;99.90;;;;;;4994026;28;20469;-84
2022/10/27 02:51:38;;;;;;;2.47;2.03;;;15.50;99.90;;;;;;5015461;28;20452;-84
2022/10/27 02:54:08;;;;;;;5.10;2.23;;;15.60;99.90;;;;;;4997402;28;20506;-85
2022/10/27 02:56:38;;;;;;;3.90;3.10;;;15.60;99.90;;;;;;4984666;28;20501;-84
2022/10/27 02:59:13;;;;;;;5.20;2.43;;;15.60;99.90;;;;;;4979661;28;20549;-82
2022/10/27 03:01:49;;;;;;;5.90;2.30;;;15.60;99.90;;;;;;4995352;28;20457;-83
2022/10/27 03:04:29;;;;;;;5.27;2.43;;;15.40;99.90;;;;;;4985871;28;20458;-83
2022/10/27 03:07:10;;;;;;;4.73;2.40;;;15.40;99.90;;;;;;4982419;28;20474;-82
2022/10/27 03:09:40;;;;;;;3.60;2.90;;;15.40;99.90;;;;;;4985885;28;20496;-84
2022/10/27 03:12:19;;;;;;;3.77;2.50;;;15.60;99.90;;;;;;5001566;28;20467;-83
2022/10/27 03:15:00;;;;;;;4.03;2.30;;;15.50;99.90;;;;;;4974365;28;20573;-81
2022/10/27 03:17:53;;;;;;;3.93;2.53;;;15.50;99.90;;;;;;4983676;28;20457;-81
2022/10/27 03:20:20;;;;;;;5.67;2.70;;;15.40;99.90;;;;;;4999204;28;20470;-81
2022/10/27 03:23:04;;;;;;;2.70;2.50;;;15.40;99.90;;;;;;4998455;28;20473;-83
2022/10/27 03:25:42;;;;;;;3.50;2.70;;;15.30;99.90;;;;;;4991663;28;20462;-81
2022/10/27 03:28:17;;;;;;;6.40;3.00;;;15.50;99.90;;;;;;4982605;28;20466;-84
2022/10/27 03:30:44;;;;;;;3.43;2.57;;;15.40;99.90;;;;;;4991777;28;20455;-83
2022/10/27 03:33:35;;;;;;;5.03;2.60;;;15.40;99.90;;;;;;5004586;28;20443;-83
2022/10/27 03:36:16;;;;;;;3.80;2.57;;;15.40;99.90;;;;;;5013923;28;20476;-86
2022/10/27 03:38:53;;;;;;;4.10;2.53;;;15.30;99.90;;;;;;5013088;28;20493;-81
2022/10/27 03:41:35;;;;;;;2.00;1.83;;;15.30;99.90;;;;;;4966502;28;20469;-83
2022/10/27 03:44:09;;;;;;;4.70;2.80;;;15.30;99.90;;;;;;4984419;28;21066;-83
2022/10/27 03:46:49;;;;;;;3.10;2.17;;;15.30;99.90;;;;;;4982136;28;20538;-83
2022/10/27 03:49:19;;;;;;;2.83;2.23;;;15.10;99.90;;;;;;4993293;28;20494;-83
2022/10/27 03:51:52;;;;;;;4.87;2.80;;;14.90;99.90;;;;;;4979324;28;20465;-83
2022/10/27 03:54:42;;;;;;;2.50;2.30;;;15.10;99.90;;;;;;4972542;28;20492;-84
2022/10/27 03:57:26;;;;;;;3.30;2.50;;;15.00;99.90;;;;;;4989319;28;20827;-84
2022/10/27 04:00:00;;;;;;;3.60;2.43;;;15.20;99.90;;;;;;4979026;28;20474;-83
2022/10/27 04:02:38;;;;;;;3.43;2.50;;;15.40;99.90;;;;;;4975219;28;20454;-85
2022/10/27 04:05:14;;;;;;;2.73;2.13;;;15.30;99.90;;;;;;5000271;28;20501;-85
2022/10/27 04:08:00;;;;;;;9.20;2.17;;;15.20;99.90;;;;;;4988335;28;20546;-83
2022/10/27 04:10:41;;;;;;;4.57;2.57;;;15.20;99.90;;;;;;4976842;28;20466;-84
2022/10/27 04:13:14;;;;;;;1.97;1.87;;;15.10;99.90;;;;;;4984400;28;20466;-84
2022/10/27 04:16:04;;;;;;;4.37;2.10;;;15.00;99.90;;;;;;4975137;28;20486;-84
2022/10/27 04:18:38;;;;;;;3.20;2.50;;;14.90;99.90;;;;;;4981384;28;20831;-84
2022/10/27 04:21:08;;;;;;;6.43;2.20;;;15.00;99.90;;;;;;4999965;28;20454;-82
2022/10/27 04:23:36;;;;;;;4.20;2.40;;;14.90;99.90;;;;;;4991223;28;20816;-83
2022/10/27 04:26:11;;;;;;;3.63;2.30;;;15.10;99.90;;;;;;4978162;28;20797;-84
2022/10/27 04:28:47;;;;;;;8.03;2.13;;;15.20;99.90;;;;;;5000929;28;20801;-83
2022/10/27 04:31:16;;;;;;;2.40;2.03;;;15.10;99.90;;;;;;4982814;28;20510;-82
2022/10/27 04:33:43;;;;;;;2.53;2.33;;;15.10;99.90;;;;;;4988989;28;20493;-83
2022/10/27 04:36:11;;;;;;;4.50;2.43;;;15.00;99.90;;;;;;4986125;28;20573;-83
2022/10/27 04:38:40;;;;;;;7.97;2.60;;;15.00;99.90;;;;;;4988255;28;20477;-82
2022/10/27 04:41:11;;;;;;;5.13;2.87;;;14.90;99.90;;;;;;4980070;28;20459;-85
2022/10/27 04:43:41;;;;;;;9.87;2.87;;;15.00;99.90;;;;;;4988260;28;20451;-85
2022/10/27 04:46:08;;;;;;;4.27;2.47;;;14.90;99.90;;;;;;5001472;28;20517;-85
2022/10/27 04:48:42;;;;;;;4.03;2.40;;;15.00;99.90;;;;;;4997498;28;20470;-85
2022/10/27 04:51:16;;;;;;;5.10;2.83;;;15.00;99.90;;;;;;4984696;28;20446;-85
2022/10/27 04:53:54;;;;;;;7.80;2.77;;;15.00;99.90;;;;;;5017453;28;20446;-87
2022/10/27 04:56:34;;;;;;;3.63;2.60;;;15.10;99.90;;;;;;4998703;28;20492;-83
2022/10/27 04:59:11;;;;;;;5.93;3.07;;;15.10;99.90;;;;;;4991891;28;20974;-83
2022/10/27 05:01:43;;;;;;;7.70;3.70;;;15.00;99.90;;;;;;5000999;28;20481;-83
2022/10/27 05:04:28;;;;;;;8.80;2.57;;;14.90;99.90;;;;;;4981186;28;20959;-83
2022/10/27 05:06:55;;;;;;;4.53;2.53;;;15.00;99.90;;;;;;4975574;28;20476;-83
2022/10/27 05:09:29;;;;;;;3.17;2.90;;;15.00;99.90;;;;;;5005728;28;20484;-83
2022/10/27 05:12:18;;;;;;;5.17;2.90;;;14.80;99.90;;;;;;5011453;28;20443;-84
2022/10/27 05:15:04;;;;;;;3.40;2.57;;;14.80;99.90;;;;;;5000536;28;20477;-86
2022/10/27 05:17:41;;;;;;;7.30;3.50;;;14.70;99.90;;;;;;4988775;28;20444;-84
2022/10/27 05:20:23;;;;;;;4.50;2.87;;;14.60;99.90;;;;;;4980262;28;20569;-84
2022/10/27 05:22:53;;;;;;;4.70;2.53;;;14.60;99.90;;;;;;4982714;28;20540;-85
2022/10/27 05:25:40;;;;;;;5.40;2.37;;;14.70;99.90;;;;;;4974554;28;20461;-85
2022/10/27 05:28:27;;;;;;;3.47;2.17;;;14.70;99.90;;;;;;4981610;28;20466;-83
2022/10/27 05:31:22;;;;;;;3.20;2.40;;;14.80;99.90;;;;;;4971002;28;20559;-84
2022/10/27 05:33:58;;;;;;;3.97;2.50;;;14.80;99.90;;;;;;4993100;28;20459;-85
2022/10/27 05:36:39;;;;;;;2.80;2.50;;;14.80;99.90;;;;;;4987801;28;20494;-85
2022/10/27 05:39:34;;;;;;;7.17;2.90;;;14.80;99.90;;;;;;4988588;28;20485;-85
2022/10/27 05:42:08;;;;;;;2.40;2.20;;;14.70;99.90;;;;;;4983266;28;20446;-83
2022/10/27 05:44:59;;;;;;;3.20;2.40;;;14.70;99.90;;;;;;4972532;28;20454;-86
2022/10/27 05:48:31;;;;;;;4.73;2.30;;;14.60;99.90;;;;;;4995307;28;20531;-87
2022/10/27 05:51:55;;;;;;;4.00;2.73;;;14.60;99.90;;;;;;4981138;28;20446;-85
2022/10/27 05:58:14;;;;;;;6.40;3.27;;;14.60;99.90;;;;;;4981536;28;20496;-85
2022/10/27 06:01:11;;;;;;;4.53;2.50;;;14.60;99.90;;;;;;4999490;28;20542;-84
2022/10/27 06:03:53;;;;;;;4.00;2.73;;;14.60;99.90;;;;;;4981276;28;20462;-84
2022/10/27 06:10:25;;;;;;;6.37;3.30;;;14.60;99.90;;;;;;4966684;28;20477;-85
2022/10/27 06:13:17;;;;;;;7.53;3.50;;;14.40;99.90;;;;;;4980010;28;20480;-87
2022/10/27 06:16:01;;;;;;;3.40;2.77;;;14.50;99.90;;;;;;4993604;28;20495;-84
2022/10/27 06:18:49;;;;;;;7.20;3.07;;;14.30;99.90;;;;;;5014698;23;20465;-82
2022/10/27 06:22:09;;;;;;;5.83;2.90;;;14.30;99.90;;;;;;5007776;28;20479;-83
2022/10/27 06:27:41;;;;;;;3.90;2.70;;;14.40;99.90;;;;;;5016810;28;20469;-83
2022/10/27 06:30:36;;;;;;;3.97;2.40;;;14.50;99.90;;;;;;5014284;28;20511;-84
2022/10/27 06:33:28;;;;;;;8.00;3.23;;;14.50;99.90;;;;;;5033259;28;20543;-86
2022/10/27 06:39:59;;;;;;;4.20;2.63;;;14.40;99.90;;;;;;5013770;28;20477;-84
2022/10/27 06:42:45;;;;;;;6.80;2.93;;;14.60;99.90;;;;;;5014099;28;20453;-84
2022/10/27 06:45:34;;;;;;;6.03;3.13;;;14.80;99.90;;;;;;5021094;28;20465;-84
2022/10/27 06:48:58;;;;;;;8.47;2.87;;;14.90;99.90;;;;;;5015778;28;20453;-85
2022/10/27 06:51:50;;;;;;;2.97;2.67;;;14.80;99.90;;;;;;5019708;28;20559;-84
2022/10/27 06:54:43;;;;;;;3.20;2.27;;;15.00;99.90;;;;;;4948223;29;20440;-85
2022/10/27 06:57:40;;;;;;;5.10;2.10;;;15.90;99.90;;;;;;4953229;29;20511;-85
2022/10/27 07:00:46;;;;;;;7.10;2.47;;;16.60;99.90;;;;;;4940234;29;20671;-84
2022/10/27 07:03:52;;;;;;;4.07;2.10;;;17.10;99.90;;;;;;4959964;29;20547;-85
2022/10/27 07:06:56;;;;;;;5.23;2.60;;;17.20;99.90;;;;;;4960728;29;20487;-84
2022/10/27 07:10:11;;;;;;;11.50;3.93;;;16.90;99.90;;;;;;4942775;29;21095;-86
2022/10/27 07:13:10;;;;;;;3.17;2.23;;;17.60;99.90;;;;;;4967835;28;20487;-84
2022/10/27 07:16:14;;;;;;;;;;;;;;;;;;;;;
2022/10/27 07:18:59;;;;;;;3.77;2.00;;;18.00;99.90;;;;;;4951695;29;20582;-84
2022/10/27 07:22:08;;;;;;;4.20;2.80;;;18.10;99.90;;;;;;4942446;29;20473;-83
2022/10/27 07:25:09;;;;;;;5.33;2.33;;;18.20;99.90;;;;;;4937553;29;20479;-85
2022/10/27 07:27:58;;;;;;;3.47;2.23;;;18.30;99.90;;;;;;4948515;29;20464;-85
2022/10/27 07:31:01;;;;;;;10.40;2.80;;;18.60;99.90;;;;;;4948095;28;20499;-85
2022/10/27 07:33:59;;;;;;;3.93;2.30;;;18.90;99.90;;;;;;4996742;28;20554;-85
2022/10/27 07:37:15;;;;;;;5.27;2.53;;;19.10;99.70;;;;;;5017730;28;20484;-83
2022/10/27 07:40:18;;;;;;;4.43;2.37;;;18.70;99.30;;;;;;4951164;28;20491;-83
2022/10/27 07:43:28;;;;;;;2.43;2.20;;;17.90;99.90;;;;;;5027077;28;20473;-84
2022/10/27 07:47:13;;;;;;;;;;;;;;;;;;;;;
2022/10/27 07:50:26;;;;;;;3.97;2.30;;;16.80;99.90;;;;;;5003554;28;20524;-84
2022/10/27 07:53:35;;;;;;;5.33;2.10;;;16.30;99.90;;;;;;4986724;28;20963;-84
2022/10/27 07:56:43;;;;;;;7.27;2.70;;;16.30;99.90;;;;;;5020472;28;20527;-85
2022/10/27 08:02:09;;;;;;;5.30;2.90;;;16.30;99.90;;;;;;1022618;26;20747;-86
2022/10/27 08:09:13;;;;;;;4.50;2.10;;;16.50;99.90;;;;;;5043842;28;20488;-85
2022/10/27 08:12:16;;;;;;;5.33;2.80;;;16.60;99.90;;;;;;5034945;28;20490;-85
2022/10/27 08:15:12;;;;;;;5.47;2.47;;;16.60;99.90;;;;;;5027709;28;20523;-85
2022/10/27 08:18:39;;;;;;;4.50;1.87;;;16.50;99.90;;;;;;5023900;28;20541;-86
2022/10/27 08:21:28;;;;;;;2.80;1.93;;;16.70;99.90;;;;;;5023195;28;20460;-85
2022/10/27 08:24:44;;;;;;;3.07;2.07;;;16.80;99.90;;;;;;5003365;28;20465;-84
2022/10/27 08:27:32;;;;;;;5.13;2.03;;;16.90;99.90;;;;;;5032375;28;20460;-85
2022/10/27 08:30:50;;;;;;;3.83;1.77;;;17.10;99.90;;;;;;4951670;28;20566;-85
2022/10/27 08:34:44;;;;;;;;;;;;;;;;;;;;;
2022/10/27 08:42:28;;;;;;;3.57;2.03;;;17.10;99.90;;;;;;4961313;29;20609;-85
2022/10/27 08:45:58;;;;;;;3.67;2.63;;;17.20;99.90;;;;;;4953230;28;20490;-86
2022/10/27 08:48:58;;;;;;;2.23;2.10;;;17.20;99.90;;;;;;5010259;28;20465;-86
2022/10/27 08:52:57;;;;;;;;;;;;;;;;;;;;;
2022/10/27 08:56:17;;;;;;;3.07;1.83;;;17.40;99.90;;;;;;4921540;28;20455;-84
2022/10/27 08:59:39;;;;;;;1.93;1.83;;;17.60;99.90;;;;;;5024914;28;20477;-83
2022/10/27 09:03:10;;;;;;;;;;;;;;;;;;;;;
2022/10/27 09:06:18;;;;;;;2.10;1.60;;;18.00;99.90;;;;;;5036493;28;20524;-85
2022/10/27 09:12:14;;;;;;;2.07;1.40;;;18.10;99.90;;;;;;816775;26;20758;-83
2022/10/27 09:15:18;;;;;;;2.17;1.90;;;17.90;99.90;;;;;;5059804;28;20474;-84
2022/10/27 09:18:13;;;;;;;2.27;1.50;;;18.10;99.90;;;;;;5038153;28;20499;-86
2022/10/27 09:21:39;;;;;;;;;;;;;;;;;;;;;
2022/10/27 09:24:41;;;;;;;3.60;1.70;;;18.50;99.90;;;;;;5004760;28;20456;-86
2022/10/27 09:28:04;;;;;;;2.43;1.73;;;18.40;99.90;;;;;;5033289;28;20447;-84
2022/10/27 09:31:20;;;;;;;4.83;1.90;;;18.60;99.90;;;;;;5026755;28;20468;-86
2022/10/27 09:34:37;;;;;;;4.03;2.33;;;19.00;99.90;;;;;;5017838;28;20511;-86
2022/10/27 09:38:01;;;;;;;;;;;;;;;;;;;;;
2022/10/27 09:41:19;;;;;;;7.20;2.13;;;21.10;96.60;;;;;;4989332;28;20474;-86
2022/10/27 09:44:21;;;;;;;5.80;1.57;;;22.10;95.30;;;;;;4967585;28;20466;-85
2022/10/27 09:55:49;;;;;;;2.20;1.63;;;21.80;94.90;;;;;;4196329;23;20561;-85
2022/10/27 09:59:16;;;;;;;1.63;1.50;;;21.80;95.00;;;;;;4938376;29;20483;-85
2022/10/27 10:02:53;;;;;;;;;;;;;;;;;;;;;
2022/10/27 10:09:46;;;;;;;3.10;2.00;;;20.20;98.00;;;;;;4981783;28;20486;-85
2022/10/27 10:13:13;;;;;;;3.40;1.60;;;20.30;98.40;;;;;;4993892;28;20540;-85
2022/10/27 10:16:59;;;;;;;4.47;1.80;;;20.40;98.40;;;;;;4982747;28;20504;-86
2022/10/27 10:27:38;;;;;;;;;;;;;;;;;;;;;
2022/10/27 10:35:14;;;;;;;5.00;1.70;;;20.40;99.10;;;;;;4894164;29;20446;-85
2022/10/27 10:38:40;;;;;;;5.37;1.90;;;20.10;99.50;;;;;;4902685;29;20655;-84
2022/10/27 10:42:05;;;;;;;;;;;;;;;;;;;;;
2022/10/27 11:43:40;;;;;;;2.10;1.80;;;20.90;97.30;;;;;;4912807;29;20451;-85
2022/10/27 11:47:04;;;;;;;1.80;1.70;;;20.90;97.10;;;;;;4849229;29;20444;-85
2022/10/27 11:50:20;;;;;;;6.10;2.80;;;20.80;97.30;;;;;;4797917;29;20611;-86
2022/10/27 11:57:11;;;;;;;6.07;2.30;;;21.10;97.10;;;;;;4933309;29;20590;-85
2022/10/27 12:00:45;;;;;;;2.40;2.20;;;21.20;96.80;;;;;;4928148;28;20467;-86
2022/10/27 12:04:15;;;;;;;3.33;2.20;;;21.30;96.70;;;;;;4966927;28;20485;-83
2022/10/27 12:07:23;;;;;;;2.37;2.10;;;21.50;96.30;;;;;;4920954;29;20461;-84
2022/10/27 12:10:56;;;;;;;4.07;2.10;;;21.50;96.40;;;;;;4907629;29;20460;-85
2022/10/27 12:14:50;;;;;;;2.87;2.53;;;21.10;97.00;;;;;;4880177;29;20473;-83
2022/10/27 12:18:27;;;;;;;;;;;;;;;;;;;;;
2022/10/27 12:21:59;;;;;;;2.90;2.20;;;21.60;96.30;;;;;;4963784;28;20434;-84
2022/10/27 12:25:20;;;;;;;1.93;1.73;;;21.50;96.60;;;;;;4964475;28;20594;-83
2022/10/27 12:28:27;;;;;;;6.23;2.50;;;21.50;96.70;;;;;;4940808;29;20444;-86
2022/10/27 12:31:33;;;;;;;4.50;2.40;;;21.80;96.00;;;;;;4922260;29;20505;-85
2022/10/27 12:34:47;;;;;;;4.50;2.27;;;21.60;96.20;;;;;;4915476;29;20447;-83
2022/10/27 12:37:52;;;;;;;4.23;2.50;;;21.60;96.20;;;;;;5178708;23;20576;-85
2022/10/27 12:41:10;;;;;;;4.73;2.23;;;21.70;96.20;;;;;;5090678;23;21286;-82
2022/10/27 12:44:19;;;;;;;3.10;2.20;;;21.60;96.10;;;;;;5012210;28;21083;-85
2022/10/27 12:47:42;;;;;;;2.80;1.90;;;21.80;96.00;;;;;;5023019;28;20475;-84
2022/10/27 12:53:39;;;;;;;5.03;2.47;;;22.20;95.50;;;;;;4996947;28;20455;-84
2022/10/27 12:57:15;;;;;;;3.47;2.47;;;22.10;95.70;;;;;;4943690;28;20612;-83
2022/10/27 13:00:31;;;;;;;;;;;;;;;;;;;;;
2022/10/27 13:03:53;;;;;;;3.27;2.23;;;22.50;95.10;;;;;;5006436;28;20499;-85
2022/10/27 13:07:32;;;;;;;;;;;;;;;;;;;;;
2022/10/27 13:10:39;;;;;;;4.63;2.50;;;22.20;95.30;;;;;;5141760;23;20508;-83
2022/10/27 13:22:04;;;;;;;6.77;2.33;;;22.90;94.50;;;;;;4984425;28;20434;-83
2022/10/27 13:32:41;;;;;;;5.40;2.37;;;22.80;95.10;;;;;;4985863;28;20477;-85
2022/10/27 13:47:34;;;;;;;5.93;3.00;;;22.70;95.30;;;;;;5003004;28;20406;-84
2022/10/27 13:51:07;;;;;;;6.60;2.23;;;22.70;95.60;;;;;;4970360;28;20488;-85
2022/10/27 14:06:31;;;;;;;;;;;;;;;;;;;;;
2022/10/27 14:10:02;;;;;;;6.23;2.30;;;22.60;96.50;;;;;;4986088;28;20501;-84
2022/10/27 14:17:15;;;;;;;6.70;2.37;;;22.70;96.20;;;;;;4941568;28;20980;-82
2022/10/27 14:25:55;;;;;;;3.47;2.90;;;22.80;95.80;;;;;;5027283;28;20477;-84
2022/10/27 14:33:46;;;;;;;5.57;2.63;;;22.60;96.30;;;;;;5021634;28;20934;-84
2022/10/27 14:36:51;;;;;;;;;;;;;;;;;;;;;
2022/10/27 14:40:18;;;;;;;3.70;2.80;;;22.50;96.90;;;;;;5023109;28;20492;-84
2022/10/27 14:43:21;;;;;;;4.97;2.80;;;22.40;96.80;;;;;;4998158;28;20453;-84
2022/10/27 14:46:35;;;;;;;5.30;3.30;;;22.20;97.20;;;;;;5016736;28;20460;-84
2022/10/27 14:49:46;;;;;;;4.97;3.03;;;22.30;97.50;;;;;;5008007;28;20467;-85
2022/10/27 14:52:49;;;;;;;5.03;3.07;;;22.20;97.70;;;;;;5016955;28;20955;-84
2022/10/27 14:56:20;;;;;;;7.33;2.80;;;22.30;97.60;;;;;;5023499;28;20474;-83
2022/10/27 14:59:00;;;;;;;7.67;3.53;;;22.40;97.70;;;;;;4954616;28;20488;-83
2022/10/27 15:01:45;;;;;;;6.33;3.47;;;22.30;97.60;;;;;;5010959;28;20482;-83
2022/10/27 15:04:37;;;;;;;8.63;3.50;;;22.10;98.00;;;;;;5020777;28;20481;-83
2022/10/27 15:10:46;;;;;;;3.50;2.60;;;21.80;98.70;;;;;;5041515;28;20486;-84
2022/10/27 15:13:46;;;;;;;4.80;2.60;;;21.90;98.60;;;;;;5016512;28;20452;-82
2022/10/27 15:16:42;;;;;;;5.90;2.77;;;22.10;98.20;;;;;;5012130;28;20517;-83
2022/10/27 15:19:41;;;;;;;6.60;3.00;;;22.00;98.30;;;;;;5061895;23;20538;-82
2022/10/27 15:22:27;;;;;;;8.40;3.83;;;22.10;98.30;;;;;;4952542;28;20466;-82
2022/10/27 15:25:26;;;;;;;4.00;2.77;;;21.90;98.40;;;;;;4956104;28;20517;-84
2022/10/27 15:27:57;;;;;;;5.07;2.90;;;21.90;98.70;;;;;;4967794;28;20457;-83
2022/10/27 15:30:31;;;;;;;3.27;2.93;;;22.00;98.40;;;;;;4966765;28;20654;-84
2022/10/27 15:33:27;;;;;;;5.50;2.70;;;21.90;98.50;;;;;;4950988;28;20447;-84
2022/10/27 15:40:03;;;;;;;6.80;2.90;;;21.90;99.10;;;;;;4920561;28;20482;-83
2022/10/27 15:43:00;;;;;;;4.53;3.00;;;21.90;98.80;;;;;;4959510;28;20455;-84
2022/10/27 15:46:29;;;;;;;4.73;3.20;;;21.90;99.00;;;;;;4952254;28;20489;-85
2022/10/27 15:49:30;;;;;;;11.50;4.17;;;21.90;98.90;;;;;;4950001;28;20483;-84
2022/10/27 15:52:29;;;;;;;5.90;3.60;;;21.80;98.90;;;;;;4947513;28;20468;-84
2022/10/27 15:55:23;;;;;;;7.27;3.57;;;21.80;99.30;;;;;;4953396;28;20455;-84
2022/10/27 15:58:16;;;;;;;4.60;3.30;;;21.70;99.30;;;;;;4949999;28;20607;-84
2022/10/27 16:01:44;;;;;;;;;;;;;;;;;;;;;
2022/10/27 16:04:41;;;;;;;6.87;3.30;;;21.50;99.90;;;;;;4959712;28;21025;-84
2022/10/27 16:07:18;;;;;;;8.40;4.50;;;21.60;99.70;;;;;;4947307;28;20541;-83
2022/10/27 16:10:19;;;;;;;5.30;3.70;;;21.60;99.70;;;;;;4970707;28;20483;-84
2022/10/27 16:13:02;;;;;;;8.07;3.83;;;21.50;99.90;;;;;;4951294;28;20482;-83
2022/10/27 16:16:09;;;;;;;3.57;2.90;;;21.40;99.90;;;;;;4955686;28;20463;-83
2022/10/27 16:24:34;;;;;;;5.07;3.30;;;21.20;99.90;;;;;;5023655;28;20557;-84
2022/10/27 16:27:32;;;;;;;;;;;;;;;;;;;;;
2022/10/27 16:30:40;;;;;;;5.97;3.43;;;21.00;99.90;;;;;;5027926;28;20467;-84
2022/10/27 16:33:31;;;;;;;;;;;;;;;;;;;;;
2022/10/27 16:36:30;;;;;;;11.27;3.43;;;21.20;99.90;;;;;;5012357;28;20448;-84
2022/10/27 16:39:28;;;;;;;4.33;2.87;;;21.30;99.90;;;;;;5003322;28;20627;-83
2022/10/27 16:42:30;;;;;;;5.53;3.30;;;21.30;99.90;;;;;;5029236;28;20504;-82
2022/10/27 16:45:40;;;;;;;7.43;4.90;;;21.10;99.90;;;;;;5017923;28;20477;-84
2022/10/27 16:50:58;;;;;;;5.03;3.63;;;21.00;99.90;;;;;;5028695;23;20489;-83
2022/10/27 16:53:52;;;;;;;5.70;3.00;;;21.10;99.90;;;;;;4978710;28;20439;-83
2022/10/27 16:57:08;;;;;;;8.97;3.90;;;21.30;99.90;;;;;;4995206;28;20468;-84
2022/10/27 17:00:29;;;;;;;8.73;4.10;;;21.10;99.90;;;;;;4997256;28;20493;-84
2022/10/27 17:03:33;;;;;;;6.00;4.13;;;21.10;99.90;;;;;;4978980;28;20462;-84
2022/10/27 17:06:50;;;;;;;9.40;3.97;;;21.20;99.90;;;;;;4992631;28;20451;-85
2022/10/27 17:09:47;;;;;;;8.90;4.03;;;21.30;99.90;;;;;;4991780;28;20604;-83
2022/10/27 17:12:43;;;;;;;3.37;2.80;;;21.10;99.90;;;;;;4975857;28;20446;-83
2022/10/27 17:22:38;;;;;;;4.73;3.83;;;21.10;99.90;;;;;;4992513;28;20478;-83
2022/10/27 17:25:26;;;;;;;6.47;3.40;;;21.20;99.90;;;;;;4974665;28;20532;-84
2022/10/27 17:28:14;;;;;;;9.00;4.10;;;21.30;99.90;;;;;;4973230;28;20784;-84
2022/10/27 17:31:00;;;;;;;5.90;3.40;;;21.10;99.90;;;;;;4976433;28;20505;-84
2022/10/27 17:33:56;;;;;;;8.37;3.70;;;21.10;99.90;;;;;;4974805;28;20454;-85
2022/10/27 17:37:11;;;;;;;;;;;;;;;;;;;;;
2022/10/27 17:40:01;;;;;;;6.47;4.03;;;21.10;99.90;;;;;;5097836;23;20584;-83
2022/10/27 17:43:06;;;;;;;;;;;;;;;;;;;;;
2022/10/27 17:46:11;;;;;;;;;;;;;;;;;;;;;
2022/10/27 17:49:17;;;;;;;6.13;4.03;;;20.70;99.90;;;;;;5021331;28;20521;-84
2022/10/27 17:52:58;;;;;;;6.27;4.60;;;20.90;99.90;;;;;;4937779;29;20453;-83
2022/10/27 17:59:37;;;;;;;6.80;4.20;;;20.90;99.90;;;;;;4935683;28;20581;-84
2022/10/27 18:05:40;;;;;;;6.17;4.53;;;20.80;99.90;;;;;;5089831;23;20567;-85
2022/10/27 18:09:00;;;;;;;;;;;;;;;;;;;;;
2022/10/27 18:12:11;;;;;;;6.30;4.00;;;20.80;99.90;;;;;;4981199;28;20527;-84
2022/10/27 18:14:55;;;;;;;6.27;3.50;;;20.70;99.90;;;;;;4993971;28;21805;-83
2022/10/27 18:17:58;;;;;;;7.60;3.70;;;20.50;99.90;;;;;;5009769;28;20489;-86
2022/10/27 18:21:46;;;;;;;8.43;4.27;;;20.50;99.90;;;;;;5025592;28;20450;-86
2022/10/27 18:24:29;;;;;;;7.90;4.30;;;20.40;99.90;;;;;;5004842;28;20454;-84
2022/10/27 18:27:47;;;;;;;8.20;4.60;;;20.50;99.90;;;;;;5009904;28;20460;-84
2022/10/27 18:34:49;;;;;;;6.07;4.00;;;20.40;99.90;;;;;;4966547;28;20432;-85
2022/10/27 18:37:51;;;;;;;6.50;4.23;;;20.20;99.90;;;;;;4978112;28;20456;-85
2022/10/27 18:41:00;;;;;;;4.67;3.73;;;20.20;99.90;;;;;;5021228;28;20465;-85
2022/10/27 18:43:57;;;;;;;5.73;4.87;;;20.10;99.90;;;;;;4974049;28;20460;-84
2022/10/27 18:47:31;;;;;;;8.17;5.07;;;20.00;99.90;;;;;;5029949;28;20521;-86
2022/10/27 18:50:22;;;;;;;13.03;5.67;;;19.90;99.90;;;;;;5007931;28;20471;-84
2022/10/27 18:53:33;;;;;;;9.13;4.20;;;19.90;99.90;;;;;;5001644;28;21113;-83
2022/10/27 18:56:49;;;;;;;5.73;4.50;;;20.00;99.90;;;;;;5006931;28;20411;-80
2022/10/27 18:59:56;;;;;;;7.73;4.47;;;20.00;99.90;;;;;;5001409;28;20520;-85
2022/10/27 19:06:52;;;;;;;5.13;4.10;;;19.90;99.90;;;;;;4897963;29;20462;-85
2022/10/27 19:10:04;;;;;;;8.47;4.87;;;19.80;99.90;;;;;;4898181;29;20481;-84
2022/10/27 19:12:53;;;;;;;7.50;4.57;;;19.70;99.90;;;;;;4894899;29;20635;-84
2022/10/27 19:15:59;;;;;;;9.23;6.27;;;19.80;99.90;;;;;;4869172;29;20459;-83
2022/10/27 19:19:04;;;;;;;6.00;4.30;;;19.90;99.90;;;;;;4899118;29;20490;-84
2022/10/27 19:22:04;;;;;;;11.00;4.67;;;19.80;99.90;;;;;;4873172;29;20483;-84
2022/10/27 19:24:48;;;;;;;9.43;4.97;;;19.90;99.90;;;;;;4890846;29;21730;-85
2022/10/27 19:27:43;;;;;;;9.40;4.93;;;19.90;99.90;;;;;;4890745;29;20493;-85
2022/10/27 19:30:59;;;;;;;6.00;5.17;;;19.80;99.90;;;;;;4891699;29;20582;-84
2022/10/27 19:34:27;;;;;;;7.23;4.20;;;19.70;99.90;;;;;;4903073;29;20641;-85
2022/10/27 19:37:13;;;;;;;7.80;5.03;;;19.70;99.90;;;;;;4899483;28;20457;-85